createdAt,value
2018-06-21T00:03:24.982Z,82
2018-06-21T00:08:54.786Z,82
2018-06-21T00:14:23.396Z,82
2018-06-21T00:19:53.129Z,82
2018-06-21T00:25:21.803Z,82
2018-06-21T00:30:50.579Z,83
2018-06-21T00:36:19.229Z,83
2018-06-21T00:41:48.903Z,83
2018-06-21T00:47:17.507Z,83
2018-06-21T00:52:47.143Z,82
2018-06-21T00:58:16.780Z,83
2018-06-21T01:03:46.448Z,83
2018-06-21T01:09:15.081Z,82
2018-06-21T01:14:44.628Z,82
2018-06-21T01:20:13.328Z,82
2018-06-21T01:25:42.875Z,82
2018-06-21T01:31:12.474Z,82
2018-06-21T01:36:42.102Z,82
2018-06-21T01:42:11.707Z,82
2018-06-21T01:47:40.991Z,82
2018-06-21T01:53:10.074Z,82
2018-06-21T01:58:39.469Z,82
2018-06-21T02:04:09.021Z,82
2018-06-21T02:09:37.613Z,82
2018-06-21T02:15:07.243Z,82
2018-06-21T02:20:36.744Z,81
2018-06-21T02:26:06.285Z,81
2018-06-21T02:31:35.809Z,81
2018-06-21T02:37:04.393Z,81
2018-06-21T02:42:34.030Z,81
2018-06-21T02:48:03.475Z,80
2018-06-21T02:53:32.020Z,80
2018-06-21T02:59:01.922Z,80
2018-06-21T03:04:31.124Z,80
2018-06-21T03:10:00.801Z,80
2018-06-21T03:15:29.196Z,80
2018-06-21T03:20:58.726Z,80
2018-06-21T03:26:28.302Z,79
2018-06-21T03:31:57.801Z,79
2018-06-21T03:37:26.382Z,79
2018-06-21T03:42:54.914Z,79
2018-06-21T03:48:23.423Z,79
2018-06-21T03:53:51.969Z,79
2018-06-21T03:59:20.529Z,78
2018-06-21T04:04:50.035Z,78
2018-06-21T04:10:19.690Z,78
2018-06-21T04:15:48.198Z,78
2018-06-21T04:21:16.629Z,78
2018-06-21T04:26:45.437Z,78
2018-06-21T04:32:13.698Z,78
2018-06-21T04:37:43.347Z,78
2018-06-21T04:43:12.763Z,78
2018-06-21T04:48:42.245Z,78
2018-06-21T04:54:11.917Z,78
2018-06-21T04:59:41.213Z,78
2018-06-21T05:05:11.109Z,78
2018-06-21T05:10:39.194Z,78
2018-06-21T05:16:07.715Z,78
2018-06-21T05:21:36.183Z,78
2018-06-21T05:27:04.695Z,78
2018-06-21T05:32:33.191Z,78
2018-06-21T05:38:02.033Z,78
2018-06-21T05:43:31.232Z,77
2018-06-21T05:49:00.622Z,77
2018-06-21T05:54:30.146Z,77
2018-06-21T05:59:58.633Z,76
2018-06-21T06:05:27.147Z,76
2018-06-21T06:10:55.742Z,76
2018-06-21T06:16:25.430Z,76
2018-06-21T06:21:53.782Z,76
2018-06-21T06:27:22.386Z,76
2018-06-21T06:32:50.765Z,75
2018-06-21T06:38:20.314Z,75
2018-06-21T06:43:50.121Z,75
2018-06-21T06:49:19.463Z,75
2018-06-21T06:54:49.139Z,75
2018-06-21T07:00:18.638Z,75
2018-06-21T07:05:47.149Z,75
2018-06-21T07:11:16.842Z,75
2018-06-21T07:22:15.733Z,75
2018-06-21T07:27:45.404Z,75
2018-06-21T07:33:13.765Z,75
2018-06-21T07:38:43.395Z,75
2018-06-21T07:44:11.884Z,75
2018-06-21T07:49:40.379Z,75
2018-06-21T07:55:08.882Z,76
2018-06-21T08:00:37.385Z,76
2018-06-21T08:06:05.907Z,76
2018-06-21T08:11:34.425Z,76
2018-06-21T08:17:03.878Z,75
2018-06-21T08:22:32.515Z,75
2018-06-21T08:28:01.013Z,75
2018-06-21T08:33:30.448Z,75
2018-06-21T08:39:00.128Z,74
2018-06-21T08:44:29.622Z,73
2018-06-21T08:49:58.337Z,73
2018-06-21T08:55:27.802Z,73
2018-06-21T09:00:56.490Z,72
2018-06-21T09:06:25.109Z,73
2018-06-21T09:11:53.772Z,74
2018-06-21T09:17:22.246Z,75
2018-06-21T09:22:51.712Z,75
2018-06-21T09:28:20.212Z,75
2018-06-21T09:33:49.685Z,75
2018-06-21T09:39:18.071Z,75
2018-06-21T09:44:46.690Z,74
2018-06-21T09:50:16.071Z,74
2018-06-21T09:55:45.585Z,74
2018-06-21T10:01:15.173Z,75
2018-06-21T10:06:43.498Z,76
2018-06-21T10:12:11.857Z,76
2018-06-21T10:17:41.203Z,76
2018-06-21T10:23:10.527Z,76
2018-06-21T10:28:38.798Z,76
2018-06-21T10:34:07.024Z,76
2018-06-21T10:39:35.236Z,77
2018-06-21T10:45:04.494Z,77
2018-06-21T10:50:32.778Z,77
2018-06-21T10:56:00.992Z,77
2018-06-21T11:01:30.256Z,78
2018-06-21T11:06:58.486Z,77
2018-06-21T11:12:27.644Z,77
2018-06-21T11:17:56.940Z,77
2018-06-21T11:23:25.323Z,77
2018-06-21T11:28:53.455Z,77
2018-06-21T11:34:21.752Z,77
2018-06-21T11:39:51.030Z,78
2018-06-21T11:45:20.306Z,78
2018-06-21T11:50:49.694Z,79
2018-06-21T11:56:18.796Z,79
2018-06-21T12:01:46.958Z,79
2018-06-21T12:07:16.409Z,79
2018-06-21T12:12:45.417Z,79
2018-06-21T12:18:13.563Z,79
2018-06-21T12:23:41.732Z,78
2018-06-21T12:29:11.084Z,78
2018-06-21T12:34:39.137Z,78
2018-06-21T12:40:08.379Z,78
2018-06-21T12:45:36.833Z,79
2018-06-21T12:51:05.857Z,80
2018-06-21T12:56:34.084Z,80
2018-06-21T13:02:02.406Z,80
2018-06-21T13:12:58.605Z,78
2018-06-21T13:18:27.862Z,78
2018-06-21T13:23:56.127Z,78
2018-06-21T13:29:25.434Z,78
2018-06-21T13:34:54.765Z,78
2018-06-21T13:40:24.175Z,78
2018-06-21T13:45:53.599Z,79
2018-06-21T13:51:22.816Z,79
2018-06-21T13:56:51.153Z,79
2018-06-21T14:02:19.630Z,79
2018-06-21T14:07:49.080Z,78
2018-06-21T14:13:18.343Z,78
2018-06-21T14:13:18.806Z,78
2018-06-21T14:18:47.791Z,78
2018-06-21T14:24:16.346Z,78
2018-06-21T14:29:44.775Z,78
2018-06-21T14:35:13.244Z,78
2018-06-21T14:40:41.555Z,77
2018-06-21T14:46:09.894Z,76
2018-06-21T14:51:39.394Z,76
2018-06-21T14:57:07.833Z,76
2018-06-21T15:02:36.176Z,75
2018-06-21T15:08:04.637Z,75
2018-06-21T15:13:33.128Z,76
2018-06-21T15:19:01.444Z,76
2018-06-21T15:24:29.865Z,77
2018-06-21T15:29:58.070Z,77
2018-06-21T15:35:26.316Z,76
2018-06-21T15:40:54.729Z,75
2018-06-21T15:46:23.050Z,75
2018-06-21T15:51:51.424Z,75
2018-06-21T15:57:20.828Z,74
2018-06-21T16:02:49.225Z,75
2018-06-21T16:08:17.719Z,75
2018-06-21T16:13:46.846Z,76
2018-06-21T16:19:15.216Z,75
2018-06-21T16:24:43.594Z,75
2018-06-21T16:30:11.720Z,74
2018-06-21T16:35:40.070Z,74
2018-06-21T16:41:08.388Z,75
2018-06-21T16:46:37.713Z,75
2018-06-21T16:52:07.050Z,75
2018-06-21T16:57:35.484Z,74
2018-06-21T17:03:03.803Z,74
2018-06-21T17:08:33.071Z,73
2018-06-21T17:14:02.474Z,73
2018-06-21T17:19:30.851Z,73
2018-06-21T17:25:00.323Z,73
2018-06-21T17:30:29.816Z,72
2018-06-21T17:35:59.046Z,72
2018-06-21T17:41:27.435Z,72
2018-06-21T17:46:55.978Z,72
2018-06-21T17:52:25.279Z,72
2018-06-21T17:57:54.049Z,72
2018-06-21T18:03:21.920Z,72
2018-06-21T18:08:51.227Z,71
2018-06-21T18:14:19.521Z,71
2018-06-21T18:19:47.853Z,71
2018-06-21T18:25:16.228Z,71
2018-06-21T18:30:45.453Z,71
2018-06-21T18:36:14.745Z,71
2018-06-21T18:41:43.020Z,71
2018-06-21T18:47:12.256Z,71
2018-06-21T18:52:40.968Z,71
2018-06-21T18:58:08.766Z,71
2018-06-21T19:03:37.087Z,71
2018-06-21T19:09:05.230Z,71
2018-06-21T19:14:33.424Z,71
2018-06-21T19:20:01.695Z,71
2018-06-21T19:25:29.844Z,72
2018-06-21T19:30:58.010Z,72
2018-06-21T19:36:26.193Z,72
2018-06-21T19:41:54.340Z,72
2018-06-21T19:47:23.585Z,72
2018-06-21T19:52:51.715Z,72
2018-06-21T19:58:20.976Z,72
2018-06-21T20:03:49.085Z,72
2018-06-21T20:09:17.271Z,72
2018-06-21T20:14:45.652Z,73
2018-06-21T20:20:14.566Z,73
2018-06-21T20:25:43.729Z,73
2018-06-21T20:31:11.860Z,73
2018-06-21T20:36:41.035Z,73
2018-06-21T20:42:10.174Z,73
2018-06-21T20:47:39.320Z,73
2018-06-21T20:53:08.493Z,73
2018-06-21T20:58:36.599Z,73
2018-06-21T21:04:05.735Z,74
2018-06-21T21:09:34.913Z,74
2018-06-21T21:15:03.087Z,74
2018-06-21T21:20:31.224Z,74
2018-06-21T21:26:00.328Z,74
2018-06-21T21:31:29.427Z,74
2018-06-21T21:36:58.531Z,74
2018-06-21T21:42:27.662Z,75
2018-06-21T21:47:56.778Z,75
2018-06-21T21:53:25.933Z,75
2018-06-21T21:58:55.009Z,75
2018-06-21T22:04:23.131Z,75
2018-06-21T22:09:51.261Z,75
2018-06-21T22:15:20.499Z,75
2018-06-21T22:20:49.523Z,75
2018-06-21T22:26:17.700Z,75
2018-06-21T22:31:45.808Z,75
2018-06-21T22:37:15.064Z,75
2018-06-21T22:42:43.038Z,75
2018-06-21T22:48:11.337Z,75
2018-06-21T22:53:39.227Z,75
2018-06-21T22:59:08.344Z,76
2018-06-21T23:04:37.440Z,75
2018-06-21T23:10:06.542Z,75
2018-06-21T23:15:35.679Z,75
2018-06-21T23:21:04.766Z,76
2018-06-21T23:26:33.950Z,76
2018-06-21T23:32:03.002Z,76
2018-06-21T23:37:31.083Z,76
2018-06-21T23:42:59.173Z,76
2018-06-21T23:48:27.250Z,76
2018-06-21T23:53:56.428Z,76
2018-06-21T23:59:24.550Z,77
